CJW7 weather

Cigar Lake Airport
Cigar Lake, Saskatchewan, Canada

Public forecast

Using degrees Celsius for public forecast. Weather courtesy of forecast.io.

Closest aviation weather report (METAR) to Cigar Lake Airport

Closest report is Key Lake Airport, 60.1 nm (111.4 km) SW. Retrieved 2020/01/27 02:39 UTC (0 seconds ago):

CYKJ 270239Z AUTO 20010KT 3/4SM BR OVC003 M07/M07 A2996 RMK SLP185

Closest aviation forecast (TAF) to Cigar Lake Airport

Forecast is more than 6 hours old.

Closest forecast is Key Lake Airport, 60.1 nm (111.4 km) SW. Retrieved 2020/01/26 19:00 UTC (8 hours ago):

TAF CYKJ 261838Z 2619/2624 18005KT 6SM BR OVC003 TEMPO 2619/2624 2SM BR RMK FCST BASED ON AUTO OBS NXT FCST WILL BE ISSUED AT 270945Z